• Join FlightAware (Why Join?)
  • Login
  • US Flag 
02:04PM EDT


 

Airport Tracker/Info


-or-


 

Live Flight TrackerFlight Track Log ✈ N619JE ✈ 15-May-2013 ✈ KHFD - KBXM

Flight Track Log - Related Links

Times and Time Zones

All times are in EDT time to prevent confusion due to time zone crossing. See the N619JE flight status page for this flight to view local times or setup timezone preferences in your user account.

Time Position Orientation Groundspeed Altitude Reporting Facility
EDT Latitude Longitude Course Direction KTS MPH feet Rate Location/Type
09:49PM 41.7000 -72.6431 158° South 93 107 1,100  Level Boston Center
09:50PM 41.7022 -72.6097 85° East 125 144 1,800 600 Climbing Boston Center
09:51PM 41.7356 -72.5875 26° Northeast 137 158 2,400 600 Climbing Boston Center
09:52PM 41.7689 -72.5681 24° Northeast 137 158 3,000 660 Climbing Boston Center
09:53PM 41.8064 -72.5486 21° North 125 144 3,800 600 Climbing Boston Center
09:54PM 41.8294 -72.5319 28° Northeast 115 132 4,300 540 Climbing Boston Center
09:55PM 41.8606 -72.5125 25° Northeast 113 130 4,900 300 Climbing Boston Center
09:56PM 41.8961 -72.4903 25° Northeast 136 157 5,000  Climbing Boston Center
09:57PM 41.9336 -72.4653 26° Northeast 144 166 5,000  Level Boston Center
09:58PM 41.9753 -72.4344 29° Northeast 143 165 5,000  Level Boston Center
09:59PM 42.0106 -72.4122 25° Northeast 146 168 5,000  Level Boston Center
10:00PM 42.0439 -72.3897 27° Northeast 147 169 5,000  Level Boston Center
10:01PM 42.0794 -72.3675 25° Northeast 138 159 5,000  Level Boston Center
10:02PM 42.1128 -72.3450 27° Northeast 144 166 5,000  Level Boston Center
10:03PM 42.1481 -72.3225 25° Northeast 142 163 5,000  Level Boston Center
10:04PM 42.1919 -72.2944 25° Northeast 151 174 5,000  Level Boston Center
10:05PM 42.2272 -72.2692 28° Northeast 146 168 5,000  Level Boston Center
10:06PM 42.2606 -72.2494 24° Northeast 135 155 5,000  Level Boston Center
10:07PM 42.2961 -72.2239 28° Northeast 135 155 5,000  Level Boston Center
10:08PM 42.3333 -72.2014 24° Northeast 135 155 5,000  Level Boston Center
10:10PM 42.3708 -72.1731 29° Northeast 140 161 5,000  Level Boston Center
10:11PM 42.4147 -72.1392 30° Northeast 140 161 5,000  Level Boston Center
10:12PM 42.4500 -72.1108 31° Northeast 140 161 5,000  Level Boston Center
10:13PM 42.4875 -72.0825 29° Northeast 140 161 5,000  Level Boston Center
10:14PM 42.5081 -72.0656 31° Northeast 140 161 5,000  Level Boston Center
10:15PM 42.5539 -72.0369 25° Northeast 148 170 5,100  Climbing Boston Center
10:16PM 42.5767 -71.9917 56° Northeast 153 176 5,000 -60 Descending Boston Center
10:17PM 42.6036 -71.9353 57° Northeast 166 191 5,000  Level Boston Center
10:18PM 42.6242 -71.8928 57° Northeast 166 191 5,000  Level Boston Center
10:19PM 42.6531 -71.8303 58° Northeast 161 185 5,000  Level Boston Center
10:20PM 42.6756 -71.7822 57° Northeast 161 185 5,000  Level Boston Center
10:21PM 42.7025 -71.7225 58° Northeast 161 185 5,000  Level Boston Center
10:22PM 42.7272 -71.6742 55° Northeast 166 191 5,000  Level Boston Center
10:23PM 42.7539 -71.6172 57° Northeast 161 185 5,000  Level Boston Center
10:24PM 42.7764 -71.5661 59° Northeast 168 193 5,000  Level Boston Center
10:25PM 42.8031 -71.5092 57° Northeast 163 188 5,000  Level Boston Center
10:26PM 42.8275 -71.4578 57° Northeast 168 193 5,000  Level Boston Center
10:27PM 42.8542 -71.4006 58° Northeast 168 193 5,000  Level Boston Center
10:27PM 42.8833 -71.3500 52° Northeast 158 182 5,000  Level KA90
10:28PM 42.9000 -71.3167 56° Northeast 161 185 5,000  Level KA90
10:29PM 42.9333 -71.2667 48° Northeast 157 181 5,000  Level KA90
10:30PM 42.9667 -71.2333 36° Northeast 156 180 5,000  Level KA90
10:31PM 43.0000 -71.1833 48° Northeast 158 182 5,000  Level KA90
10:32PM 43.0333 -71.1500 36° Northeast 161 185 5,000  Level KA90
10:33PM 43.0667 -71.1000 48° Northeast 158 182 5,000  Level KA90
10:35PM 43.0885 -71.0430 45° Northeast  Level FlightAware Approximate
10:42PM 43.2911 -70.7674 44° Northeast  Level FlightAware Approximate
10:43PM 43.3204 -70.7284 44° Northeast  Level FlightAware Approximate
10:44PM 43.3497 -70.6894 44° Northeast  Level FlightAware Approximate
10:45PM 43.3790 -70.6504 44° Northeast  Level FlightAware Approximate
10:46PM 43.4082 -70.6113 44° Northeast  Level FlightAware Approximate
10:47PM 43.4374 -70.5721 44° Northeast  Level FlightAware Approximate
10:48PM 43.4666 -70.5329 44° Northeast  Level FlightAware Approximate
10:49PM 43.4957 -70.4936 44° Northeast  Level FlightAware Approximate
10:50PM 43.5249 -70.4542 44° Northeast  Level FlightAware Approximate
10:51PM 43.5540 -70.4149 44° Northeast  Level FlightAware Approximate
10:52PM 43.5831 -70.3755 44° Northeast  Level FlightAware Approximate
10:53PM 43.6122 -70.3360 44° Northeast  Level FlightAware Approximate
10:54PM 43.6413 -70.2965 44° Northeast  Level FlightAware Approximate
10:55PM 43.6703 -70.2570 45° Northeast  Level FlightAware Approximate
10:56PM 43.6994 -70.2175 45° Northeast  Level FlightAware Approximate
10:57PM 43.7248 -70.1733 52° Northeast  Level FlightAware Approximate
10:58PM 43.7501 -70.1291 52° Northeast  Level FlightAware Approximate
10:59PM 43.7771 -70.0870 42° Northeast  Level FlightAware Approximate
11:00PM 43.8074 -70.0492 42° Northeast  Level FlightAware Approximate
11:01PM 43.8370 -70.0105 50° Northeast  Level FlightAware Approximate
11:02PM 43.8631 -69.9671 50° Northeast  Level FlightAware Approximate
11:03PM 43.8833 -69.9333 50° Northeast  Level FlightAware Approximate
11:04PM 43.8924 -69.9388 50° Northeast  Level Estimated
11:05PM 43.8924 -69.9388 50° Northeast  Level Estimated
11:06PM 43.8924 -69.9388 50° Northeast  Level Estimated
11:07PM 43.8924 -69.9388 50° Northeast  Level Estimated
11:08PM 43.8924 -69.9388 50° Northeast  Level Estimated
11:09PM 43.8924 -69.9388 50° Northeast  Level Estimated